PWSweather.com
Personal Weather Stations
Station Observations
BWSWX1
Teesside, BillinghamGB TS23 1DL

TeessideBillinghamGB TS23 1DL

Lat: 54.588219, Lon: -1.289528

Elevation: 39

Station Type: Davis Vantage Pro2 Plus

http://billinghamweather.com/index.php

High Low Average
Temperature 72.1°F22.3°C 56.2°F13.4°C 64.8°F18.2°C
Dew Point 61.9°F16.6°C 48.4°F9.1°C 53.3°F11.8°C
Winds 9.2 mph 14.8 kmh Calm Calm 4.0 mph W6.4 kmh W
Wind Gusts 14.0 mph22.5 kmh -- 7.0 mph11.3 kmh
Humidity 89% 47% 68%
Pressure 30.19 in1022.4 mb 29.97 in1014.9 mb -
Precipitation 0.00 in0.0 mm - -
Hour Temp Dew Point Humidity Winds Wind Gusts Pressure Precip Precip Rate Daily Precip Total
12:00 AM 66.9°F19.4°C 61.9°F16.6°C 84% 0.8 mph WSW1.3 kmh WSW 6.0 mph9.7 kmh 29.97 in1014.9 mb - 0.00 in0.0 mm 0.00 in0.0 mm
12:10 AM 66.7°F19.3°C 61.7°F16.5°C 84% 0.4 mph SW0.6 kmh SW 2.0 mph3.2 kmh 29.97 in1014.9 mb - 0.00 in0.0 mm 0.00 in0.0 mm
12:20 AM 66.5°F19.2°C 61.5°F16.4°C 84% 2.9 mph SSW4.7 kmh SSW 6.0 mph9.7 kmh 29.97 in1014.9 mb - 0.00 in0.0 mm 0.00 in0.0 mm
12:30 AM 66.2°F19.0°C 61.6°F16.4°C 85% 3.5 mph WSW5.6 kmh WSW 5.0 mph8.0 kmh 29.98 in1015.2 mb - 0.00 in0.0 mm 0.00 in0.0 mm
12:40 AM 66.0°F18.9°C 61.4°F16.3°C 85% 1.1 mph SW1.8 kmh SW 2.0 mph3.2 kmh 29.97 in1014.9 mb - 0.00 in0.0 mm 0.00 in0.0 mm
12:50 AM 65.7°F18.7°C 61.1°F16.2°C 85% 3.1 mph SW5.0 kmh SW 6.0 mph9.7 kmh 29.98 in1015.2 mb - 0.00 in0.0 mm 0.00 in0.0 mm
01:00 AM 65.5°F18.6°C 61.2°F16.2°C 86% 1.1 mph SW1.8 kmh SW 2.0 mph3.2 kmh 29.98 in1015.2 mb - 0.00 in0.0 mm 0.00 in0.0 mm
01:10 AM 65.1°F18.4°C 60.8°F16.0°C 86% 0.7 mph WSW1.1 kmh WSW 1.0 mph1.6 kmh 29.98 in1015.2 mb - 0.00 in0.0 mm 0.00 in0.0 mm
01:20 AM 64.8°F18.2°C 60.8°F16.0°C 87% 0.7 mph S1.1 kmh S 1.0 mph1.6 kmh 29.98 in1015.2 mb - 0.00 in0.0 mm 0.00 in0.0 mm
01:30 AM 64.6°F18.1°C 60.6°F15.9°C 87% 0.7 mph SSW1.1 kmh SSW 2.0 mph3.2 kmh 29.99 in1015.6 mb - 0.00 in0.0 mm 0.00 in0.0 mm
01:40 AM 64.4°F18.0°C 60.5°F15.8°C 87% 0.2 mph S0.3 kmh S 1.0 mph1.6 kmh 29.99 in1015.6 mb - 0.00 in0.0 mm 0.00 in0.0 mm
01:50 AM 64.3°F17.9°C 60.7°F15.9°C 88% 0.3 mph S0.5 kmh S 2.0 mph3.2 kmh 29.99 in1015.6 mb - 0.00 in0.0 mm 0.00 in0.0 mm
02:00 AM 64.1°F17.8°C 60.4°F15.8°C 88% 0.1 mph WSW0.2 kmh WSW -- 29.99 in1015.6 mb - 0.00 in0.0 mm 0.00 in0.0 mm
02:10 AM 63.9°F17.7°C 60.2°F15.7°C 88% Calm Calm -- 30.00 in1015.9 mb - 0.00 in0.0 mm 0.00 in0.0 mm
02:20 AM 63.8°F17.7°C 60.1°F15.6°C 88% 0.9 mph WSW1.4 kmh WSW 2.0 mph3.2 kmh 30.00 in1015.9 mb - 0.00 in0.0 mm 0.00 in0.0 mm
02:30 AM 63.6°F17.6°C 60.0°F15.6°C 88% 1.1 mph WSW1.8 kmh WSW 3.0 mph4.8 kmh 30.00 in1015.9 mb - 0.00 in0.0 mm 0.00 in0.0 mm
02:40 AM 63.5°F17.5°C 59.9°F15.5°C 88% 1.0 mph SSW1.6 kmh SSW 2.0 mph3.2 kmh 30.00 in1015.9 mb - 0.00 in0.0 mm 0.00 in0.0 mm
02:50 AM 63.4°F17.4°C 59.8°F15.4°C 88% 0.8 mph WSW1.3 kmh WSW 3.0 mph4.8 kmh 30.00 in1015.9 mb - 0.00 in0.0 mm 0.00 in0.0 mm
03:00 AM 63.3°F17.4°C 60.0°F15.6°C 89% 0.4 mph WSW0.6 kmh WSW 2.0 mph3.2 kmh 30.01 in1016.3 mb - 0.00 in0.0 mm 0.00 in0.0 mm
03:10 AM 62.8°F17.1°C 59.2°F15.1°C 88% 2.2 mph NNW3.5 kmh NNW 5.0 mph8.0 kmh 30.02 in1016.6 mb - 0.00 in0.0 mm 0.00 in0.0 mm
03:20 AM 62.2°F16.8°C 58.3°F14.6°C 87% 2.0 mph NW3.2 kmh NW 2.0 mph3.2 kmh 30.02 in1016.6 mb - 0.00 in0.0 mm 0.00 in0.0 mm
03:30 AM 61.9°F16.6°C 57.6°F14.2°C 86% 2.6 mph NNW4.2 kmh NNW 5.0 mph8.0 kmh 30.02 in1016.6 mb - 0.00 in0.0 mm 0.00 in0.0 mm
03:40 AM 61.5°F16.4°C 57.3°F14.1°C 86% 1.5 mph NNW2.4 kmh NNW 2.0 mph3.2 kmh 30.03 in1016.9 mb - 0.00 in0.0 mm 0.00 in0.0 mm
03:50 AM 61.3°F16.3°C 56.8°F13.8°C 85% 0.3 mph WNW0.5 kmh WNW 3.0 mph4.8 kmh 30.03 in1016.9 mb - 0.00 in0.0 mm 0.00 in0.0 mm
04:00 AM 61.1°F16.2°C 56.6°F13.7°C 85% 1.1 mph W1.8 kmh W 4.0 mph6.4 kmh 30.03 in1016.9 mb - 0.00 in0.0 mm 0.00 in0.0 mm
04:10 AM 60.9°F16.1°C 56.4°F13.6°C 85% 1.8 mph W2.9 kmh W 3.0 mph4.8 kmh 30.03 in1016.9 mb - 0.00 in0.0 mm 0.00 in0.0 mm
04:20 AM 60.8°F16.0°C 56.2°F13.4°C 85% 1.0 mph N1.6 kmh N 1.0 mph1.6 kmh 30.04 in1017.3 mb - 0.00 in0.0 mm 0.00 in0.0 mm
04:30 AM 60.7°F15.9°C 55.8°F13.2°C 84% 4.1 mph NW6.6 kmh NW 8.0 mph12.9 kmh 30.04 in1017.3 mb - 0.00 in0.0 mm 0.00 in0.0 mm
04:40 AM 60.7°F15.9°C 55.5°F13.1°C 83% 4.9 mph WNW7.9 kmh WNW 8.0 mph12.9 kmh 30.04 in1017.3 mb - 0.00 in0.0 mm 0.00 in0.0 mm
04:50 AM 60.6°F15.9°C 55.4°F13.0°C 83% 5.1 mph W8.2 kmh W 9.0 mph14.5 kmh 30.04 in1017.3 mb - 0.00 in0.0 mm 0.00 in0.0 mm
05:00 AM 60.6°F15.9°C 55.0°F12.8°C 82% 6.5 mph W10.5 kmh W 8.0 mph12.9 kmh 30.05 in1017.6 mb - 0.00 in0.0 mm 0.00 in0.0 mm
05:10 AM 60.6°F15.9°C 55.1°F12.8°C 82% 5.0 mph NW8.0 kmh NW 8.0 mph12.9 kmh 30.04 in1017.3 mb - 0.00 in0.0 mm 0.00 in0.0 mm
05:20 AM 60.7°F15.9°C 55.2°F12.9°C 82% 4.7 mph NW7.6 kmh NW 9.0 mph14.5 kmh 30.05 in1017.6 mb - 0.00 in0.0 mm 0.00 in0.0 mm
05:30 AM 60.9°F16.1°C 55.4°F13.0°C 82% 3.6 mph NW5.8 kmh NW 7.0 mph11.3 kmh 30.05 in1017.6 mb - 0.00 in0.0 mm 0.00 in0.0 mm
05:40 AM 60.9°F16.1°C 55.0°F12.8°C 81% 2.0 mph NW3.2 kmh NW 3.0 mph4.8 kmh 30.06 in1017.9 mb - 0.00 in0.0 mm 0.00 in0.0 mm
05:50 AM 60.8°F16.0°C 54.9°F12.7°C 81% 2.4 mph W3.9 kmh W 5.0 mph8.0 kmh 30.06 in1017.9 mb - 0.00 in0.0 mm 0.00 in0.0 mm
06:00 AM 60.6°F15.9°C 54.7°F12.6°C 81% 4.3 mph WNW6.9 kmh WNW 8.0 mph12.9 kmh 30.07 in1018.3 mb - 0.00 in0.0 mm 0.00 in0.0 mm
06:10 AM 60.5°F15.8°C 54.6°F12.6°C 81% 4.9 mph NW7.9 kmh NW 7.0 mph11.3 kmh 30.07 in1018.3 mb - 0.00 in0.0 mm 0.00 in0.0 mm
06:20 AM 60.3°F15.7°C 54.5°F12.5°C 81% 2.6 mph W4.2 kmh W 5.0 mph8.0 kmh 30.08 in1018.6 mb - 0.00 in0.0 mm 0.00 in0.0 mm
06:30 AM 60.4°F15.8°C 54.9°F12.7°C 82% 2.1 mph WNW3.4 kmh WNW 4.0 mph6.4 kmh 30.08 in1018.6 mb - 0.00 in0.0 mm 0.00 in0.0 mm
06:40 AM 60.4°F15.8°C 54.5°F12.5°C 81% 3.7 mph WNW6.0 kmh WNW 8.0 mph12.9 kmh 30.09 in1019.0 mb - 0.00 in0.0 mm 0.00 in0.0 mm
06:50 AM 60.8°F16.0°C 54.5°F12.5°C 80% 3.1 mph NW5.0 kmh NW 5.0 mph8.0 kmh 30.09 in1019.0 mb - 0.00 in0.0 mm 0.00 in0.0 mm
07:00 AM 60.8°F16.0°C 54.3°F12.4°C 79% 4.3 mph NNW6.9 kmh NNW 8.0 mph12.9 kmh 30.09 in1019.0 mb - 0.00 in0.0 mm 0.00 in0.0 mm
07:10 AM 61.4°F16.3°C 54.5°F12.5°C 78% 2.4 mph NW3.9 kmh NW 5.0 mph8.0 kmh 30.10 in1019.3 mb - 0.00 in0.0 mm 0.00 in0.0 mm
07:20 AM 62.3°F16.8°C 55.3°F12.9°C 78% 1.7 mph N2.7 kmh N 4.0 mph6.4 kmh 30.10 in1019.3 mb - 0.00 in0.0 mm 0.00 in0.0 mm
07:30 AM 62.8°F17.1°C 55.2°F12.9°C 76% 2.7 mph NW4.3 kmh NW 5.0 mph8.0 kmh 30.10 in1019.3 mb - 0.00 in0.0 mm 0.00 in0.0 mm
07:40 AM 63.1°F17.3°C 54.3°F12.4°C 73% 1.8 mph NW2.9 kmh NW 4.0 mph6.4 kmh 30.10 in1019.3 mb - 0.00 in0.0 mm 0.00 in0.0 mm
07:50 AM 63.1°F17.3°C 54.3°F12.4°C 73% 3.2 mph WNW5.1 kmh WNW 8.0 mph12.9 kmh 30.11 in1019.6 mb - 0.00 in0.0 mm 0.00 in0.0 mm
08:00 AM 62.8°F17.1°C 53.6°F12.0°C 72% 4.0 mph W6.4 kmh W 8.0 mph12.9 kmh 30.11 in1019.6 mb - 0.00 in0.0 mm 0.00 in0.0 mm
08:10 AM 62.6°F17.0°C 53.8°F12.1°C 73% 3.0 mph WNW4.8 kmh WNW 5.0 mph8.0 kmh 30.11 in1019.6 mb - 0.00 in0.0 mm 0.00 in0.0 mm
08:20 AM 62.3°F16.8°C 53.5°F11.9°C 73% 3.0 mph NW4.8 kmh NW 5.0 mph8.0 kmh 30.11 in1019.6 mb - 0.00 in0.0 mm 0.00 in0.0 mm
08:30 AM 62.2°F16.8°C 52.7°F11.5°C 71% 5.9 mph NW9.5 kmh NW 7.0 mph11.3 kmh 30.11 in1019.6 mb - 0.00 in0.0 mm 0.00 in0.0 mm
08:40 AM 62.3°F16.8°C 52.8°F11.6°C 71% 5.2 mph NW8.4 kmh NW 7.0 mph11.3 kmh 30.12 in1020.0 mb - 0.00 in0.0 mm 0.00 in0.0 mm
08:50 AM 62.3°F16.8°C 52.4°F11.3°C 70% 6.8 mph W10.9 kmh W 10.0 mph16.1 kmh 30.12 in1020.0 mb - 0.00 in0.0 mm 0.00 in0.0 mm
09:00 AM 62.6°F17.0°C 52.7°F11.5°C 70% 4.5 mph WNW7.2 kmh WNW 6.0 mph9.7 kmh 30.12 in1020.0 mb - 0.00 in0.0 mm 0.00 in0.0 mm
09:10 AM 63.9°F17.7°C 53.1°F11.7°C 68% 4.9 mph NW7.9 kmh NW 8.0 mph12.9 kmh 30.12 in1020.0 mb - 0.00 in0.0 mm 0.00 in0.0 mm
09:20 AM 64.9°F18.3°C 53.3°F11.8°C 66% 3.7 mph WNW6.0 kmh WNW 5.0 mph8.0 kmh 30.12 in1020.0 mb - 0.00 in0.0 mm 0.00 in0.0 mm
09:30 AM 65.6°F18.7°C 53.1°F11.7°C 64% 3.5 mph N5.6 kmh N 5.0 mph8.0 kmh 30.12 in1020.0 mb - 0.00 in0.0 mm 0.00 in0.0 mm
09:40 AM 66.5°F19.2°C 53.5°F11.9°C 63% 5.3 mph NW8.5 kmh NW 9.0 mph14.5 kmh 30.12 in1020.0 mb - 0.00 in0.0 mm 0.00 in0.0 mm
09:50 AM 67.1°F19.5°C 53.2°F11.8°C 61% 3.8 mph W6.1 kmh W 7.0 mph11.3 kmh 30.12 in1020.0 mb - 0.00 in0.0 mm 0.00 in0.0 mm
10:00 AM 67.5°F19.7°C 52.6°F11.4°C 59% 6.6 mph NW10.6 kmh NW 13.0 mph20.9 kmh 30.12 in1020.0 mb - 0.00 in0.0 mm 0.00 in0.0 mm
10:10 AM 68.3°F20.2°C 53.0°F11.7°C 58% 1.7 mph WNW2.7 kmh WNW 6.0 mph9.7 kmh 30.12 in1020.0 mb - 0.00 in0.0 mm 0.00 in0.0 mm
10:20 AM 68.9°F20.5°C 53.0°F11.7°C 57% 2.3 mph W3.7 kmh W 8.0 mph12.9 kmh 30.12 in1020.0 mb - 0.00 in0.0 mm 0.00 in0.0 mm
10:30 AM 68.8°F20.4°C 52.0°F11.1°C 55% 3.4 mph NW5.5 kmh NW 6.0 mph9.7 kmh 30.12 in1020.0 mb - 0.00 in0.0 mm 0.00 in0.0 mm
10:40 AM 69.5°F20.8°C 53.6°F12.0°C 57% 3.8 mph WSW6.1 kmh WSW 8.0 mph12.9 kmh 30.12 in1020.0 mb - 0.00 in0.0 mm 0.00 in0.0 mm
10:50 AM 70.0°F21.1°C 52.1°F11.2°C 53% 4.4 mph NW7.1 kmh NW 6.0 mph9.7 kmh 30.13 in1020.3 mb - 0.00 in0.0 mm 0.00 in0.0 mm
11:00 AM 69.7°F20.9°C 52.8°F11.6°C 55% 5.2 mph WNW8.4 kmh WNW 10.0 mph16.1 kmh 30.12 in1020.0 mb - 0.00 in0.0 mm 0.00 in0.0 mm
11:10 AM 69.7°F20.9°C 53.3°F11.8°C 56% 5.7 mph NW9.2 kmh NW 8.0 mph12.9 kmh 30.13 in1020.3 mb - 0.00 in0.0 mm 0.00 in0.0 mm
11:20 AM 69.5°F20.8°C 53.1°F11.7°C 56% 3.4 mph NW5.5 kmh NW 10.0 mph16.1 kmh 30.13 in1020.3 mb - 0.00 in0.0 mm 0.00 in0.0 mm
11:30 AM 69.6°F20.9°C 52.7°F11.5°C 55% 5.4 mph WSW8.7 kmh WSW 11.0 mph17.7 kmh 30.13 in1020.3 mb - 0.00 in0.0 mm 0.00 in0.0 mm
11:40 AM 69.8°F21.0°C 52.9°F11.6°C 55% 7.3 mph WSW11.7 kmh WSW 11.0 mph17.7 kmh 30.12 in1020.0 mb - 0.00 in0.0 mm 0.00 in0.0 mm
11:50 AM 69.6°F20.9°C 51.7°F10.9°C 53% 7.5 mph WNW12.1 kmh WNW 13.0 mph20.9 kmh 30.13 in1020.3 mb - 0.00 in0.0 mm 0.00 in0.0 mm
12:00 PM 68.9°F20.5°C 52.6°F11.4°C 56% 6.4 mph NNW10.3 kmh NNW 14.0 mph22.5 kmh 30.13 in1020.3 mb - 0.00 in0.0 mm 0.00 in0.0 mm
12:10 PM 69.9°F21.1°C 54.0°F12.2°C 57% 4.2 mph SW6.8 kmh SW 13.0 mph20.9 kmh 30.13 in1020.3 mb - 0.00 in0.0 mm 0.00 in0.0 mm
12:20 PM 69.7°F20.9°C 52.8°F11.6°C 55% 7.7 mph W12.4 kmh W 9.0 mph14.5 kmh 30.13 in1020.3 mb - 0.00 in0.0 mm 0.00 in0.0 mm
12:30 PM 70.0°F21.1°C 52.6°F11.4°C 54% 5.7 mph NNW9.2 kmh NNW 9.0 mph14.5 kmh 30.13 in1020.3 mb - 0.00 in0.0 mm 0.00 in0.0 mm
12:40 PM 70.2°F21.2°C 52.3°F11.3°C 53% 5.1 mph W8.2 kmh W 9.0 mph14.5 kmh 30.14 in1020.7 mb - 0.00 in0.0 mm 0.00 in0.0 mm
12:50 PM 70.3°F21.3°C 51.8°F11.0°C 52% 6.8 mph NW10.9 kmh NW 10.0 mph16.1 kmh 30.13 in1020.3 mb - 0.00 in0.0 mm 0.00 in0.0 mm
01:00 PM 69.7°F20.9°C 51.8°F11.0°C 53% 3.2 mph NW5.1 kmh NW 9.0 mph14.5 kmh 30.14 in1020.7 mb - 0.00 in0.0 mm 0.00 in0.0 mm
01:10 PM 70.2°F21.2°C 52.3°F11.3°C 53% 3.4 mph NNW5.5 kmh NNW 7.0 mph11.3 kmh 30.13 in1020.3 mb - 0.00 in0.0 mm 0.00 in0.0 mm
01:20 PM 70.1°F21.2°C 52.2°F11.2°C 53% 5.0 mph W8.0 kmh W 8.0 mph12.9 kmh 30.14 in1020.7 mb - 0.00 in0.0 mm 0.00 in0.0 mm
01:30 PM 70.2°F21.2°C 52.3°F11.3°C 53% 2.7 mph NW4.3 kmh NW 5.0 mph8.0 kmh 30.13 in1020.3 mb - 0.00 in0.0 mm 0.00 in0.0 mm
01:40 PM 70.3°F21.3°C 52.9°F11.6°C 54% 6.7 mph NW10.8 kmh NW 13.0 mph20.9 kmh 30.13 in1020.3 mb - 0.00 in0.0 mm 0.00 in0.0 mm
01:50 PM 71.1°F21.7°C 52.6°F11.4°C 52% 5.7 mph WNW9.2 kmh WNW 9.0 mph14.5 kmh 30.14 in1020.7 mb - 0.00 in0.0 mm 0.00 in0.0 mm
02:00 PM 70.6°F21.4°C 52.1°F11.2°C 52% 7.1 mph WNW11.4 kmh WNW 9.0 mph14.5 kmh 30.14 in1020.7 mb - 0.00 in0.0 mm 0.00 in0.0 mm
02:10 PM 70.7°F21.5°C 51.1°F10.6°C 50% 9.0 mph WNW14.5 kmh WNW 12.0 mph19.3 kmh 30.14 in1020.7 mb - 0.00 in0.0 mm 0.00 in0.0 mm
02:20 PM 71.1°F21.7°C 52.1°F11.2°C 51% 4.6 mph WSW7.4 kmh WSW 11.0 mph17.7 kmh 30.13 in1020.3 mb - 0.00 in0.0 mm 0.00 in0.0 mm
02:30 PM 70.3°F21.3°C 51.9°F11.1°C 52% 5.7 mph W9.2 kmh W 10.0 mph16.1 kmh 30.14 in1020.7 mb - 0.00 in0.0 mm 0.00 in0.0 mm
02:40 PM 70.2°F21.2°C 51.7°F10.9°C 52% 9.2 mph NW14.8 kmh NW 14.0 mph22.5 kmh 30.14 in1020.7 mb - 0.00 in0.0 mm 0.00 in0.0 mm
02:50 PM 71.0°F21.7°C 52.0°F11.1°C 51% 7.2 mph SW11.6 kmh SW 12.0 mph19.3 kmh 30.14 in1020.7 mb - 0.00 in0.0 mm 0.00 in0.0 mm
03:00 PM 72.0°F22.2°C 51.8°F11.0°C 49% 3.1 mph NW5.0 kmh NW 6.0 mph9.7 kmh 30.13 in1020.3 mb - 0.00 in0.0 mm 0.00 in0.0 mm
03:10 PM 72.1°F22.3°C 51.4°F10.8°C 48% 5.1 mph WNW8.2 kmh WNW 6.0 mph9.7 kmh 30.14 in1020.7 mb - 0.00 in0.0 mm 0.00 in0.0 mm
03:20 PM 72.1°F22.3°C 50.7°F10.4°C 47% 7.0 mph WSW11.3 kmh WSW 13.0 mph20.9 kmh 30.14 in1020.7 mb - 0.00 in0.0 mm 0.00 in0.0 mm
03:30 PM 71.1°F21.7°C 51.0°F10.6°C 49% 5.2 mph WSW8.4 kmh WSW 9.0 mph14.5 kmh 30.14 in1020.7 mb - 0.00 in0.0 mm 0.00 in0.0 mm
03:40 PM 70.4°F21.3°C 52.0°F11.1°C 52% 5.8 mph NW9.3 kmh NW 10.0 mph16.1 kmh 30.14 in1020.7 mb - 0.00 in0.0 mm 0.00 in0.0 mm
03:50 PM 69.9°F21.1°C 52.0°F11.1°C 53% 3.4 mph WSW5.5 kmh WSW 10.0 mph16.1 kmh 30.14 in1020.7 mb - 0.00 in0.0 mm 0.00 in0.0 mm
04:00 PM 69.3°F20.7°C 50.4°F10.2°C 51% 6.0 mph S9.7 kmh S 8.0 mph12.9 kmh 30.14 in1020.7 mb - 0.00 in0.0 mm 0.00 in0.0 mm
04:10 PM 68.9°F20.5°C 51.6°F10.9°C 54% 2.7 mph W4.3 kmh W 6.0 mph9.7 kmh 30.14 in1020.7 mb - 0.00 in0.0 mm 0.00 in0.0 mm
04:20 PM 68.7°F20.4°C 50.9°F10.5°C 53% 5.4 mph NW8.7 kmh NW 10.0 mph16.1 kmh 30.14 in1020.7 mb - 0.00 in0.0 mm 0.00 in0.0 mm
04:30 PM 68.9°F20.5°C 51.6°F10.9°C 54% 5.1 mph SW8.2 kmh SW 11.0 mph17.7 kmh 30.15 in1021.0 mb - 0.00 in0.0 mm 0.00 in0.0 mm
04:40 PM 68.8°F20.4°C 51.0°F10.6°C 53% 3.4 mph WSW5.5 kmh WSW 5.0 mph8.0 kmh 30.14 in1020.7 mb - 0.00 in0.0 mm 0.00 in0.0 mm
04:50 PM 68.8°F20.4°C 51.0°F10.6°C 53% 8.4 mph SW13.5 kmh SW 12.0 mph19.3 kmh 30.15 in1021.0 mb - 0.00 in0.0 mm 0.00 in0.0 mm
05:00 PM 69.0°F20.6°C 51.1°F10.6°C 53% 3.9 mph NW6.3 kmh NW 7.0 mph11.3 kmh 30.14 in1020.7 mb - 0.00 in0.0 mm 0.00 in0.0 mm
05:10 PM 69.5°F20.8°C 50.0°F10.0°C 50% 5.1 mph WNW8.2 kmh WNW 6.0 mph9.7 kmh 30.14 in1020.7 mb - 0.00 in0.0 mm 0.00 in0.0 mm
05:20 PM 69.6°F20.9°C 50.7°F10.4°C 51% 6.6 mph WNW10.6 kmh WNW 13.0 mph20.9 kmh 30.15 in1021.0 mb - 0.00 in0.0 mm 0.00 in0.0 mm
05:30 PM 68.8°F20.4°C 49.9°F9.9°C 51% 7.0 mph NW11.3 kmh NW 12.0 mph19.3 kmh 30.15 in1021.0 mb - 0.00 in0.0 mm 0.00 in0.0 mm
05:40 PM 68.3°F20.2°C 50.5°F10.3°C 53% 7.8 mph NW12.6 kmh NW 14.0 mph22.5 kmh 30.15 in1021.0 mb - 0.00 in0.0 mm 0.00 in0.0 mm
05:50 PM 67.6°F19.8°C 50.4°F10.2°C 54% 6.3 mph W10.1 kmh W 10.0 mph16.1 kmh 30.15 in1021.0 mb - 0.00 in0.0 mm 0.00 in0.0 mm
06:00 PM 67.2°F19.6°C 50.5°F10.3°C 55% 3.8 mph SW6.1 kmh SW 5.0 mph8.0 kmh 30.15 in1021.0 mb - 0.00 in0.0 mm 0.00 in0.0 mm
06:10 PM 67.2°F19.6°C 50.0°F10.0°C 54% 6.5 mph NNW10.5 kmh NNW 9.0 mph14.5 kmh 30.15 in1021.0 mb - 0.00 in0.0 mm 0.00 in0.0 mm
06:20 PM 66.8°F19.3°C 49.6°F9.8°C 54% 6.1 mph WNW9.8 kmh WNW 7.0 mph11.3 kmh 30.16 in1021.3 mb - 0.00 in0.0 mm 0.00 in0.0 mm
06:30 PM 66.6°F19.2°C 49.9°F9.9°C 55% 5.0 mph NW8.0 kmh NW 12.0 mph19.3 kmh 30.15 in1021.0 mb - 0.00 in0.0 mm 0.00 in0.0 mm
06:40 PM 66.4°F19.1°C 50.2°F10.1°C 56% 5.2 mph WSW8.4 kmh WSW 11.0 mph17.7 kmh 30.16 in1021.3 mb - 0.00 in0.0 mm 0.00 in0.0 mm
06:50 PM 66.1°F18.9°C 50.4°F10.2°C 57% 3.9 mph WNW6.3 kmh WNW 7.0 mph11.3 kmh 30.16 in1021.3 mb - 0.00 in0.0 mm 0.00 in0.0 mm
07:00 PM 65.5°F18.6°C 50.3°F10.2°C 58% 5.2 mph NW8.4 kmh NW 8.0 mph12.9 kmh 30.16 in1021.3 mb - 0.00 in0.0 mm 0.00 in0.0 mm
07:10 PM 65.0°F18.3°C 49.9°F9.9°C 58% 3.4 mph WNW5.5 kmh WNW 5.0 mph8.0 kmh 30.16 in1021.3 mb - 0.00 in0.0 mm 0.00 in0.0 mm
07:20 PM 64.7°F18.2°C 50.0°F10.0°C 59% 3.9 mph SW6.3 kmh SW 8.0 mph12.9 kmh 30.16 in1021.3 mb - 0.00 in0.0 mm 0.00 in0.0 mm
07:30 PM 64.3°F17.9°C 49.7°F9.8°C 59% 4.3 mph WNW6.9 kmh WNW 8.0 mph12.9 kmh 30.16 in1021.3 mb - 0.00 in0.0 mm 0.00 in0.0 mm
07:40 PM 63.8°F17.7°C 49.6°F9.8°C 60% 4.5 mph WSW7.2 kmh WSW 9.0 mph14.5 kmh 30.16 in1021.3 mb - 0.00 in0.0 mm 0.00 in0.0 mm
07:50 PM 63.4°F17.4°C 49.7°F9.8°C 61% 4.5 mph WNW7.2 kmh WNW 7.0 mph11.3 kmh 30.16 in1021.3 mb - 0.00 in0.0 mm 0.00 in0.0 mm
08:00 PM 63.0°F17.2°C 49.8°F9.9°C 62% 5.1 mph WSW8.2 kmh WSW 7.0 mph11.3 kmh 30.17 in1021.7 mb - 0.00 in0.0 mm 0.00 in0.0 mm
08:10 PM 62.5°F16.9°C 50.1°F10.1°C 64% 2.5 mph WNW4.0 kmh WNW 7.0 mph11.3 kmh 30.17 in1021.7 mb - 0.00 in0.0 mm 0.00 in0.0 mm
08:20 PM 62.0°F16.7°C 50.1°F10.1°C 65% 1.8 mph WNW2.9 kmh WNW 4.0 mph6.4 kmh 30.17 in1021.7 mb - 0.00 in0.0 mm 0.00 in0.0 mm
08:30 PM 61.4°F16.3°C 49.9°F9.9°C 66% 2.9 mph W4.7 kmh W 5.0 mph8.0 kmh 30.17 in1021.7 mb - 0.00 in0.0 mm 0.00 in0.0 mm
08:40 PM 61.0°F16.1°C 49.6°F9.8°C 66% 5.5 mph W8.9 kmh W 9.0 mph14.5 kmh 30.17 in1021.7 mb - 0.00 in0.0 mm 0.00 in0.0 mm
08:50 PM 60.7°F15.9°C 49.7°F9.8°C 67% 3.6 mph WNW5.8 kmh WNW 8.0 mph12.9 kmh 30.18 in1022.0 mb - 0.00 in0.0 mm 0.00 in0.0 mm
09:00 PM 60.3°F15.7°C 49.3°F9.6°C 67% 4.2 mph W6.8 kmh W 7.0 mph11.3 kmh 30.17 in1021.7 mb - 0.00 in0.0 mm 0.00 in0.0 mm
09:10 PM 60.1°F15.6°C 49.5°F9.7°C 68% 0.6 mph SSW1.0 kmh SSW 2.0 mph3.2 kmh 30.18 in1022.0 mb - 0.00 in0.0 mm 0.00 in0.0 mm
09:20 PM 59.9°F15.5°C 49.3°F9.6°C 68% 0.5 mph SSE0.8 kmh SSE 2.0 mph3.2 kmh 30.18 in1022.0 mb - 0.00 in0.0 mm 0.00 in0.0 mm
09:30 PM 59.7°F15.4°C 49.5°F9.7°C 69% 0.5 mph S0.8 kmh S 2.0 mph3.2 kmh 30.18 in1022.0 mb - 0.00 in0.0 mm 0.00 in0.0 mm
09:40 PM 59.4°F15.2°C 49.2°F9.6°C 69% 1.7 mph WSW2.7 kmh WSW 3.0 mph4.8 kmh 30.18 in1022.0 mb - 0.00 in0.0 mm 0.00 in0.0 mm
09:50 PM 59.1°F15.1°C 48.9°F9.4°C 69% 0.9 mph SW1.4 kmh SW 2.0 mph3.2 kmh 30.18 in1022.0 mb - 0.00 in0.0 mm 0.00 in0.0 mm
10:00 PM 58.8°F14.9°C 49.0°F9.4°C 70% Calm Calm 1.0 mph1.6 kmh 30.18 in1022.0 mb - 0.00 in0.0 mm 0.00 in0.0 mm
10:10 PM 58.5°F14.7°C 48.7°F9.3°C 70% Calm Calm 1.0 mph1.6 kmh 30.19 in1022.4 mb - 0.00 in0.0 mm 0.00 in0.0 mm
10:20 PM 58.1°F14.5°C 48.7°F9.3°C 71% 1.6 mph W2.6 kmh W 2.0 mph3.2 kmh 30.18 in1022.0 mb - 0.00 in0.0 mm 0.00 in0.0 mm
10:30 PM 57.7°F14.3°C 48.7°F9.3°C 72% 1.8 mph SW2.9 kmh SW 5.0 mph8.0 kmh 30.18 in1022.0 mb - 0.00 in0.0 mm 0.00 in0.0 mm
10:40 PM 57.5°F14.2°C 48.9°F9.4°C 73% 1.7 mph WSW2.7 kmh WSW 3.0 mph4.8 kmh 30.18 in1022.0 mb - 0.00 in0.0 mm 0.00 in0.0 mm
10:50 PM 57.4°F14.1°C 48.8°F9.3°C 73% 1.7 mph WSW2.7 kmh WSW 4.0 mph6.4 kmh 30.18 in1022.0 mb - 0.00 in0.0 mm 0.00 in0.0 mm
11:00 PM 57.2°F14.0°C 49.0°F9.4°C 74% 1.5 mph WSW2.4 kmh WSW 3.0 mph4.8 kmh 30.19 in1022.4 mb - 0.00 in0.0 mm 0.00 in0.0 mm
11:10 PM 57.0°F13.9°C 48.8°F9.3°C 74% 2.0 mph SW3.2 kmh SW 6.0 mph9.7 kmh 30.18 in1022.0 mb - 0.00 in0.0 mm 0.00 in0.0 mm
11:20 PM 56.8°F13.8°C 48.6°F9.2°C 74% 1.5 mph WSW2.4 kmh WSW 4.0 mph6.4 kmh 30.18 in1022.0 mb - 0.00 in0.0 mm 0.00 in0.0 mm
11:30 PM 56.5°F13.6°C 48.7°F9.3°C 75% 0.8 mph WSW1.3 kmh WSW 2.0 mph3.2 kmh 30.18 in1022.0 mb - 0.00 in0.0 mm 0.00 in0.0 mm
11:40 PM 56.4°F13.6°C 48.5°F9.2°C 75% Calm Calm -- 30.18 in1022.0 mb - 0.00 in0.0 mm 0.00 in0.0 mm
11:50 PM 56.2°F13.4°C 48.4°F9.1°C 75% 0.1 mph SSW0.2 kmh SSW 1.0 mph1.6 kmh 30.18 in1022.0 mb - 0.00 in0.0 mm 0.00 in0.0 mm